Time;durP1;ratioP1;P1;durP2;ratioP2;P2;SDS_P1;SDS_P2;PMS_P1;PMS_P2;Temp;Humidity;BMP_temperature;BMP_pressure;BME280_temperature;BME280_humidity;BME280_pressure;Samples;Min_cycle;Max_cycle;Signal;HPM_P1;HPM_P2
2021/12/08 00:01:54;;;;;;;0.20;0.20;;;;;;;-0.83;100.00;99745.34;4995945;28;20046;-78
2021/12/08 00:04:24;;;;;;;0.20;0.20;;;;;;;-0.80;100.00;99738.75;4997629;28;20061;-78
2021/12/08 00:06:57;;;;;;;0.20;0.20;;;;;;;-0.74;100.00;99753.88;5002338;28;20048;-79
2021/12/08 00:09:46;;;;;;;0.20;0.20;;;;;;;-0.75;100.00;99736.22;5002440;28;20054;-79
2021/12/08 00:15:10;;;;;;;0.30;0.30;;;;;;;-0.67;100.00;99741.22;5006655;28;20493;-79
2021/12/08 00:17:43;;;;;;;0.20;0.20;;;;;;;-0.65;100.00;99738.31;5002431;28;20055;-78
2021/12/08 00:20:18;;;;;;;0.28;0.28;;;;;;;-0.65;100.00;99730.31;4988777;28;20065;-79
2021/12/08 00:22:51;;;;;;;0.20;0.20;;;;;;;-0.63;100.00;99736.25;4991569;28;20046;-79
2021/12/08 00:25:24;;;;;;;0.30;0.30;;;;;;;-0.63;100.00;99737.06;4992531;28;20081;-78
2021/12/08 00:27:52;;;;;;;0.20;0.20;;;;;;;-0.65;100.00;99731.09;4987860;28;20050;-78
2021/12/08 00:30:27;;;;;;;0.25;0.25;;;;;;;-0.68;100.00;99710.19;4990543;28;20513;-78
2021/12/08 00:33:01;;;;;;;0.22;0.22;;;;;;;-0.69;100.00;99706.72;4988949;28;20042;-78
2021/12/08 00:35:31;;;;;;;0.30;0.30;;;;;;;-0.62;100.00;99709.28;4992425;28;20501;-79
2021/12/08 00:38:05;;;;;;;0.25;0.25;;;;;;;-0.64;100.00;99719.38;4990042;28;20057;-79
2021/12/08 00:40:33;;;;;;;0.30;0.30;;;;;;;-0.67;100.00;99698.47;4993561;28;20065;-78
2021/12/08 00:43:02;;;;;;;0.20;0.20;;;;;;;-0.75;100.00;99688.91;4993569;28;20046;-78
2021/12/08 00:45:30;;;;;;;0.20;0.20;;;;;;;-0.67;100.00;99682.44;4998628;28;20050;-79
2021/12/08 00:48:04;;;;;;;0.20;0.20;;;;;;;-0.63;100.00;99686.28;4991808;28;20042;-78
2021/12/08 00:50:38;;;;;;;0.20;0.20;;;;;;;-0.63;100.00;99683.59;5014758;28;20065;-79
2021/12/08 00:53:12;;;;;;;0.20;0.20;;;;;;;-0.57;100.00;99671.19;4989242;28;20043;-79
2021/12/08 00:55:45;;;;;;;0.20;0.20;;;;;;;-0.61;100.00;99648.63;4989119;28;20395;-79
2021/12/08 00:58:18;;;;;;;0.20;0.20;;;;;;;-0.57;100.00;99642.59;4989994;28;20042;-79
2021/12/08 01:00:50;;;;;;;0.20;0.20;;;;;;;-0.62;100.00;99628.28;4994379;28;20046;-78
2021/12/08 01:03:23;;;;;;;0.30;0.30;;;;;;;-0.61;100.00;99627.25;4994517;28;20046;-78
2021/12/08 01:05:55;;;;;;;0.22;0.22;;;;;;;-0.61;100.00;99616.56;4989408;28;20297;-79
2021/12/08 01:08:29;;;;;;;0.20;0.20;;;;;;;-0.62;100.00;99614.94;4987686;28;20046;-79
2021/12/08 01:11:04;;;;;;;0.20;0.20;;;;;;;-0.62;100.00;99605.06;4992237;28;20053;-78
2021/12/08 01:13:32;;;;;;;0.20;0.20;;;;;;;-0.62;100.00;99607.75;4990680;28;20046;-78
2021/12/08 01:16:06;;;;;;;0.30;0.30;;;;;;;-0.60;100.00;99602.97;4990414;28;20050;-78
2021/12/08 01:18:39;;;;;;;0.20;0.20;;;;;;;-0.61;100.00;99603.22;4992200;28;20038;-78
2021/12/08 01:21:14;;;;;;;0.25;0.25;;;;;;;-0.60;100.00;99602.97;4991797;28;20042;-79
2021/12/08 01:23:42;;;;;;;0.20;0.20;;;;;;;-0.57;100.00;99609.72;4994351;28;20049;-79
2021/12/08 01:26:11;;;;;;;0.20;0.20;;;;;;;-0.56;100.00;99611.34;4987691;28;20142;-79
2021/12/08 01:28:44;;;;;;;0.20;0.20;;;;;;;-0.59;100.00;99609.94;4988616;28;20053;-79
2021/12/08 01:31:18;;;;;;;0.30;0.30;;;;;;;-0.57;100.00;99594.47;4988145;28;20061;-78
2021/12/08 01:33:46;;;;;;;0.20;0.20;;;;;;;-0.54;100.00;99602.06;4989805;28;20046;-79
2021/12/08 01:36:21;;;;;;;0.25;0.25;;;;;;;-0.60;100.00;99586.94;4991138;28;20042;-79
2021/12/08 01:38:54;;;;;;;0.20;0.20;;;;;;;-0.51;100.00;99598.09;4988463;28;20041;-78
2021/12/08 01:41:27;;;;;;;0.20;0.20;;;;;;;-0.52;100.00;99605.28;4990998;28;20046;-79
2021/12/08 01:46:52;;;;;;;0.20;0.20;;;;;;;-0.50;100.00;99594.38;5004189;28;20057;-78
2021/12/08 01:49:22;;;;;;;0.20;0.20;;;;;;;-0.44;100.00;99600.63;4991147;28;20038;-78
2021/12/08 01:51:52;;;;;;;0.25;0.25;;;;;;;-0.47;100.00;99601.13;4989325;28;20050;-79
2021/12/08 01:54:20;;;;;;;0.20;0.20;;;;;;;-0.48;100.00;99578.94;4992598;28;20050;-78
2021/12/08 01:56:54;;;;;;;0.20;0.20;;;;;;;-0.43;100.00;99586.22;4991219;28;20054;-78
2021/12/08 01:59:28;;;;;;;0.20;0.20;;;;;;;-0.41;100.00;99574.25;4987392;28;20049;-78
2021/12/08 02:02:01;;;;;;;0.10;0.10;;;;;;;-0.43;100.00;99568.34;4991828;28;20046;-77
2021/12/08 02:04:36;;;;;;;0.20;0.20;;;;;;;-0.36;100.00;99563.69;4995710;28;20046;-77
2021/12/08 02:07:10;;;;;;;0.20;0.20;;;;;;;-0.42;100.00;99556.59;4989497;28;20050;-80
2021/12/08 02:09:44;;;;;;;0.10;0.10;;;;;;;-0.42;100.00;99555.78;4988957;28;20041;-79
2021/12/08 02:12:12;;;;;;;0.20;0.20;;;;;;;-0.39;100.00;99553.47;4995017;28;20054;-78
2021/12/08 02:14:45;;;;;;;0.20;0.20;;;;;;;-0.38;100.00;99535.56;4989916;28;20405;-79
2021/12/08 02:17:19;;;;;;;0.20;0.20;;;;;;;-0.35;100.00;99545.78;4992149;28;20047;-78
2021/12/08 02:19:52;;;;;;;0.20;0.20;;;;;;;-0.36;100.00;99550.31;4993335;28;20038;-78
2021/12/08 02:22:27;;;;;;;0.20;0.20;;;;;;;-0.33;100.00;99541.03;4987869;28;20081;-77
2021/12/08 02:25:00;;;;;;;0.20;0.20;;;;;;;-0.33;100.00;99522.31;4988831;28;20054;-79
2021/12/08 02:27:34;;;;;;;0.20;0.20;;;;;;;-0.33;100.00;99522.31;4988769;28;20506;-78
2021/12/08 02:30:13;;;;;;;0.25;0.25;;;;;;;-0.40;100.00;99505.56;4988610;28;20050;-78
2021/12/08 02:47:16;;;;;;;0.20;0.20;;;;;;;-0.30;100.00;99481.72;4991127;28;20046;-79
2021/12/08 02:49:49;;;;;;;0.30;0.30;;;;;;;-0.30;100.00;99484.41;4992360;28;20038;-79
2021/12/08 02:52:25;;;;;;;0.22;0.22;;;;;;;-0.31;100.00;99469.41;4989073;28;20054;-78
2021/12/08 02:55:04;;;;;;;0.30;0.30;;;;;;;-0.30;100.00;99471.03;5019747;28;20491;-80
2021/12/08 02:57:37;;;;;;;0.20;0.20;;;;;;;-0.33;100.00;99454.66;4989359;28;20053;-78
2021/12/08 03:00:15;;;;;;;0.20;0.20;;;;;;;-0.35;100.00;99452.22;4985636;28;20134;-79
2021/12/08 03:02:48;;;;;;;0.20;0.20;;;;;;;-0.28;100.00;99455.56;4987895;28;20046;-78
2021/12/08 03:05:16;;;;;;;0.20;0.20;;;;;;;-0.30;100.00;99463.00;4987167;28;20056;-79
2021/12/08 03:07:50;;;;;;;0.20;0.20;;;;;;;-0.34;100.00;99451.16;4987941;28;20443;-79
2021/12/08 03:10:27;;;;;;;0.20;0.20;;;;;;;-0.30;100.00;99457.66;4986168;28;20482;-78
2021/12/08 03:12:56;;;;;;;0.20;0.20;;;;;;;-0.32;100.00;99446.38;4987217;28;20058;-79
2021/12/08 03:15:29;;;;;;;0.30;0.30;;;;;;;-0.30;100.00;99451.50;4990296;28;20047;-78
2021/12/08 03:17:57;;;;;;;0.30;0.30;;;;;;;-0.32;100.00;99442.91;4988808;28;20529;-78
2021/12/08 03:20:39;;;;;;;0.20;0.20;;;;;;;-0.30;100.00;99444.28;4993769;28;20319;-78
2021/12/08 03:23:20;;;;;;;0.20;0.20;;;;;;;-0.33;100.00;99430.59;4992882;28;20391;-78
2021/12/08 03:25:55;;;;;;;0.15;0.15;;;;;;;-0.39;100.00;99416.31;4991932;28;20057;-78
2021/12/08 03:28:33;;;;;;;0.20;0.20;;;;;;;-0.28;100.00;99428.00;4992441;28;20046;-78
2021/12/08 03:31:06;;;;;;;0.20;0.20;;;;;;;-0.38;100.00;99426.75;4991731;28;20057;-78
2021/12/08 03:33:34;;;;;;;0.20;0.20;;;;;;;-0.32;100.00;99425.00;5020982;28;20054;-79
2021/12/08 03:36:08;;;;;;;0.20;0.20;;;;;;;-0.33;100.00;99428.75;4993319;28;20042;-78
2021/12/08 03:38:44;;;;;;;0.20;0.20;;;;;;;-0.33;100.00;99439.44;4990667;28;20399;-79
2021/12/08 03:41:19;;;;;;;0.30;0.30;;;;;;;-0.34;100.00;99445.81;4995021;28;20046;-79
2021/12/08 03:43:47;;;;;;;0.30;0.30;;;;;;;-0.31;100.00;99437.31;4991729;28;20062;-78
2021/12/08 03:46:26;;;;;;;0.30;0.30;;;;;;;-0.35;100.00;99433.50;4990753;28;20058;-79
2021/12/08 03:49:00;;;;;;;0.20;0.20;;;;;;;-0.32;100.00;99424.19;4989463;28;20065;-79
2021/12/08 03:51:29;;;;;;;0.20;0.20;;;;;;;-0.32;100.00;99425.00;4994434;28;20051;-78
2021/12/08 03:54:02;;;;;;;0.20;0.20;;;;;;;-0.33;100.00;99385.97;5000877;28;20057;-79
2021/12/08 03:56:32;;;;;;;0.30;0.30;;;;;;;-0.33;100.00;99407.34;4990176;28;20503;-79
2021/12/08 03:59:00;;;;;;;0.20;0.20;;;;;;;-0.31;100.00;99420.47;5019075;28;20514;-77
2021/12/08 04:01:28;;;;;;;0.20;0.20;;;;;;;-0.35;100.00;99402.25;4993804;28;20065;-79
2021/12/08 04:04:07;;;;;;;0.20;0.20;;;;;;;-0.36;100.00;99403.28;4996791;28;20050;-79
2021/12/08 04:06:46;;;;;;;0.20;0.20;;;;;;;-0.35;100.00;99399.56;4999731;28;20046;-79
2021/12/08 04:09:28;;;;;;;0.20;0.20;;;;;;;-0.38;100.00;99409.94;4994925;28;20276;-79
2021/12/08 04:11:59;;;;;;;0.30;0.30;;;;;;;-0.41;100.00;99405.06;4991855;28;20053;-78
2021/12/08 04:14:30;;;;;;;0.20;0.20;;;;;;;-0.36;100.00;99405.13;5007247;28;20051;-78
2021/12/08 04:17:04;;;;;;;0.30;0.30;;;;;;;-0.38;100.00;99405.38;4994439;28;20074;-79
2021/12/08 04:19:38;;;;;;;0.20;0.20;;;;;;;-0.38;100.00;99410.72;4993225;28;20038;-79
2021/12/08 04:22:10;;;;;;;0.20;0.20;;;;;;;-0.40;100.00;99407.50;4993404;28;20065;-79
2021/12/08 04:24:46;;;;;;;0.20;0.20;;;;;;;-0.40;100.00;99404.00;4990093;28;20039;-79
2021/12/08 04:27:27;;;;;;;0.20;0.20;;;;;;;-0.39;100.00;99408.28;4992719;28;20046;-79
2021/12/08 04:30:01;;;;;;;0.30;0.30;;;;;;;-0.33;100.00;99394.00;4989071;28;20046;-79
2021/12/08 04:32:35;;;;;;;0.20;0.20;;;;;;;-0.37;100.00;99406.22;4992057;28;20039;-78
2021/12/08 04:35:15;;;;;;;0.30;0.30;;;;;;;-0.41;100.00;99415.75;4997219;28;20046;-79
2021/12/08 04:37:53;;;;;;;0.28;0.28;;;;;;;-0.38;100.00;99431.31;4991298;28;20045;-78
2021/12/08 04:40:35;;;;;;;0.30;0.30;;;;;;;-0.20;100.00;99451.69;5001282;28;20061;-79
2021/12/08 04:43:19;;;;;;;0.28;0.28;;;;;;;-0.25;100.00;99447.06;4989819;28;20054;-79
2021/12/08 04:46:03;;;;;;;0.20;0.20;;;;;;;-0.28;100.00;99452.06;4991581;28;20070;-78
2021/12/08 04:48:56;;;;;;;0.20;0.20;;;;;;;-0.26;100.00;99448.13;4995423;28;20053;-79
2021/12/08 04:51:47;;;;;;;0.20;0.20;;;;;;;-0.30;100.00;99452.31;4992295;28;20046;-79
2021/12/08 05:00:27;;;;;;;0.30;0.30;;;;;;;-0.30;100.00;99425.59;4983531;28;20407;-79
2021/12/08 05:03:21;;;;;;;0.20;0.20;;;;;;;-0.30;100.00;99448.81;5000977;28;20054;-79
2021/12/08 05:06:16;;;;;;;0.20;0.20;;;;;;;-0.36;100.00;99437.22;4991222;28;20038;-79
2021/12/08 05:08:48;;;;;;;0.20;0.20;;;;;;;-0.33;100.00;99455.47;4990017;28;20042;-78
2021/12/08 05:11:21;;;;;;;0.20;0.20;;;;;;;-0.33;100.00;99451.97;5006842;28;20039;-78
2021/12/08 05:13:52;;;;;;;0.30;0.30;;;;;;;-0.36;100.00;99454.09;4997453;28;20050;-78
2021/12/08 05:16:28;;;;;;;0.20;0.20;;;;;;;-0.35;100.00;99449.53;4996834;28;20046;-78
2021/12/08 05:19:00;;;;;;;0.20;0.20;;;;;;;-0.41;100.00;99442.50;4989760;28;20388;-79
2021/12/08 05:21:37;;;;;;;0.30;0.30;;;;;;;-0.38;100.00;99448.16;4991821;28;20054;-78
2021/12/08 05:24:09;;;;;;;0.30;0.30;;;;;;;-0.40;100.00;99441.41;4991248;28;20054;-79
2021/12/08 05:26:46;;;;;;;0.20;0.20;;;;;;;-0.39;100.00;99440.38;4991432;28;20057;-79
2021/12/08 05:29:24;;;;;;;0.20;0.20;;;;;;;-0.40;100.00;99444.91;4991059;28;20049;-78
2021/12/08 05:32:02;;;;;;;0.20;0.20;;;;;;;-0.36;100.00;99442.56;4991181;28;20050;-78
2021/12/08 05:34:36;;;;;;;0.20;0.20;;;;;;;-0.44;100.00;99446.44;4995042;28;20517;-79
2021/12/08 05:37:13;;;;;;;0.20;0.20;;;;;;;-0.49;100.00;99441.00;4993394;28;20410;-79
2021/12/08 05:39:46;;;;;;;0.20;0.20;;;;;;;-0.41;100.00;99453.97;4990624;28;20061;-79
2021/12/08 05:42:19;;;;;;;0.30;0.30;;;;;;;-0.47;100.00;99444.25;4991375;28;20049;-78
2021/12/08 05:44:53;;;;;;;0.22;0.22;;;;;;;-0.53;100.00;99450.53;4993177;28;20053;-79
2021/12/08 05:47:31;;;;;;;0.30;0.30;;;;;;;-0.59;100.00;99457.63;4988459;28;20050;-80
2021/12/08 05:50:06;;;;;;;0.20;0.20;;;;;;;-0.64;100.00;99452.19;4984839;28;20065;-78
2021/12/08 05:52:34;;;;;;;0.20;0.20;;;;;;;-0.69;100.00;99447.56;4990078;28;20399;-79
2021/12/08 05:55:09;;;;;;;0.20;0.20;;;;;;;-0.68;100.00;99453.69;4991005;28;20046;-78
2021/12/08 05:57:40;;;;;;;0.20;0.20;;;;;;;-0.71;100.00;99460.31;4988188;28;20057;-79
2021/12/08 06:00:18;;;;;;;0.20;0.20;;;;;;;-0.70;100.00;99439.78;5003095;28;20051;-78
2021/12/08 06:02:53;;;;;;;0.20;0.20;;;;;;;-0.80;100.00;99443.06;4990024;28;20465;-78
2021/12/08 06:05:29;;;;;;;0.30;0.30;;;;;;;-0.82;100.00;99439.78;4990375;28;20049;-78
2021/12/08 06:07:58;;;;;;;0.30;0.30;;;;;;;-0.83;100.00;99445.38;4998810;28;20429;-79
2021/12/08 06:10:35;;;;;;;0.20;0.20;;;;;;;-0.86;100.00;99446.66;4992634;28;20054;-79
2021/12/08 06:13:12;;;;;;;0.20;0.20;;;;;;;-0.89;100.00;99445.25;4986775;28;20054;-78
2021/12/08 06:15:48;;;;;;;0.20;0.20;;;;;;;-0.93;100.00;99445.97;4989855;28;20042;-79
2021/12/08 06:18:23;;;;;;;0.20;0.20;;;;;;;-0.94;100.00;99434.47;4990196;28;20046;-79
2021/12/08 06:20:54;;;;;;;0.30;0.30;;;;;;;-0.90;100.00;99443.66;4993713;28;20069;-78
2021/12/08 06:23:27;;;;;;;0.20;0.20;;;;;;;-0.96;100.00;99443.78;4996905;28;20399;-79
2021/12/08 06:26:01;;;;;;;0.20;0.20;;;;;;;-0.99;100.00;99433.56;4991589;28;20042;-79
2021/12/08 06:28:29;;;;;;;0.20;0.20;;;;;;;-1.03;100.00;99444.69;4991372;28;20046;-79
2021/12/08 06:31:05;;;;;;;0.30;0.30;;;;;;;-1.03;100.00;99446.56;4991786;28;20065;-79
2021/12/08 06:33:40;;;;;;;0.30;0.30;;;;;;;-1.01;100.00;99436.44;4993467;28;20051;-78
2021/12/08 06:36:16;;;;;;;0.20;0.20;;;;;;;-1.05;100.00;99438.78;4990786;28;20503;-80
2021/12/08 06:38:51;;;;;;;0.20;0.20;;;;;;;-1.07;100.00;99438.19;4992438;28;20506;-79
2021/12/08 06:41:23;;;;;;;0.20;0.20;;;;;;;-1.05;100.00;99441.44;4991915;28;20387;-80
2021/12/08 06:43:54;;;;;;;0.20;0.20;;;;;;;-1.08;100.00;99449.09;4999464;28;20042;-79
2021/12/08 06:46:28;;;;;;;0.17;0.17;;;;;;;-1.05;100.00;99451.31;5002432;28;20049;-79
2021/12/08 06:49:06;;;;;;;0.10;0.10;;;;;;;-1.06;100.00;99455.84;4994411;28;20050;-79
2021/12/08 06:51:38;;;;;;;0.20;0.20;;;;;;;-0.99;100.00;99450.38;4990006;28;20058;-79
2021/12/08 06:54:15;;;;;;;0.20;0.20;;;;;;;-1.06;100.00;99445.16;4996028;28;20065;-79
2021/12/08 06:56:54;;;;;;;0.20;0.20;;;;;;;-1.05;100.00;99446.78;4994937;28;20050;-79
2021/12/08 06:59:33;;;;;;;0.20;0.20;;;;;;;-1.10;100.00;99453.88;4996261;28;20087;-80
2021/12/08 07:02:17;;;;;;;0.30;0.30;;;;;;;-1.06;100.00;99444.38;4996532;28;20061;-80
2021/12/08 07:04:56;;;;;;;0.20;0.20;;;;;;;-1.07;100.00;99445.41;4995124;28;20046;-79
2021/12/08 07:07:30;;;;;;;0.20;0.20;;;;;;;-1.05;100.00;99452.13;4995272;28;20050;-80
2021/12/08 07:10:05;;;;;;;0.20;0.20;;;;;;;-1.06;100.00;99455.84;4995050;28;20102;-79
2021/12/08 07:12:42;;;;;;;0.28;0.28;;;;;;;-1.06;100.00;99444.38;4999454;28;20057;-79
2021/12/08 07:15:21;;;;;;;0.20;0.20;;;;;;;-1.08;100.00;99447.28;4995849;28;20042;-79
2021/12/08 07:17:59;;;;;;;0.30;0.30;;;;;;;-1.07;100.00;99434.72;4999846;28;20061;-79
2021/12/08 07:20:43;;;;;;;0.25;0.25;;;;;;;-1.12;100.00;99432.75;4995132;28;20050;-79
2021/12/08 07:23:20;;;;;;;0.30;0.30;;;;;;;-1.09;100.00;99428.78;4993771;28;20057;-79
2021/12/08 07:25:59;;;;;;;0.22;0.22;;;;;;;-1.00;100.00;99446.09;4997741;28;20050;-79
2021/12/08 07:28:28;;;;;;;0.30;0.30;;;;;;;-1.05;100.00;99438.78;4995446;28;20049;-79
2021/12/08 07:30:59;;;;;;;0.25;0.25;;;;;;;-0.98;100.00;99440.50;4984635;28;20050;-79
2021/12/08 07:33:28;;;;;;;0.20;0.20;;;;;;;-1.03;100.00;99447.34;4992729;28;20050;-81
2021/12/08 07:36:09;;;;;;;0.20;0.20;;;;;;;-1.00;100.00;99440.75;4996795;28;20061;-78
2021/12/08 07:38:45;;;;;;;0.20;0.20;;;;;;;-0.99;100.00;99444.25;4996921;28;20038;-79
2021/12/08 07:41:23;;;;;;;0.20;0.20;;;;;;;-0.96;100.00;99457.91;4990086;28;20061;-79
2021/12/08 07:43:59;;;;;;;0.20;0.20;;;;;;;-0.98;100.00;99457.34;4993519;28;20050;-79
2021/12/08 07:46:36;;;;;;;0.25;0.25;;;;;;;-0.96;100.00;99455.25;4993471;28;20042;-78
2021/12/08 07:49:12;;;;;;;;;;;;;;;-0.93;100.00;99453.97;4998903;28;20046;-80
2021/12/08 07:51:50;;;;;;;0.20;0.20;;;;;;;-0.94;100.00;99455.00;4996129;28;19922;-79
2021/12/08 07:54:24;;;;;;;0.20;0.20;;;;;;;-0.96;100.00;99457.13;4984154;28;20058;-80
2021/12/08 07:56:56;;;;;;;0.25;0.25;;;;;;;-0.93;100.00;99456.66;4995339;28;20498;-79
2021/12/08 07:59:30;;;;;;;0.20;0.20;;;;;;;-0.93;100.00;99446.75;4953619;28;21018;-80
2021/12/08 08:02:07;;;;;;;0.20;0.20;;;;;;;-0.93;100.00;99462.78;4971033;28;20054;-80
2021/12/08 08:04:42;;;;;;;;;;;;;;;-0.90;100.00;99451.66;4972109;28;20062;-80
2021/12/08 08:07:13;;;;;;;0.20;0.20;;;;;;;-0.94;100.00;99449.69;4974312;28;19933;-80
2021/12/08 08:09:45;;;;;;;0.20;0.20;;;;;;;-0.92;100.00;99459.09;4974113;28;20058;-79
2021/12/08 08:12:21;;;;;;;0.20;0.20;;;;;;;-0.85;100.00;99453.63;4975976;28;20058;-79
2021/12/08 08:14:54;;;;;;;0.20;0.20;;;;;;;-0.88;100.00;99462.09;4977624;28;20059;-80
2021/12/08 08:17:35;;;;;;;0.20;0.20;;;;;;;-0.89;100.00;99452.47;4975879;28;20070;-80
2021/12/08 08:20:12;;;;;;;0.22;0.22;;;;;;;-0.91;100.00;99459.88;4976259;28;20050;-80
2021/12/08 08:22:47;;;;;;;0.30;0.30;;;;;;;-0.83;100.00;99466.75;4974028;28;20065;-80
2021/12/08 08:25:25;;;;;;;0.22;0.22;;;;;;;-0.96;100.00;99452.59;4974395;28;20680;-80
2021/12/08 08:27:58;;;;;;;0.25;0.25;;;;;;;-0.89;100.00;99463.94;4974959;28;20054;-80
2021/12/08 08:30:35;;;;;;;0.20;0.20;;;;;;;-0.92;100.00;99467.09;4974438;28;20045;-80
2021/12/08 08:33:09;;;;;;;0.20;0.20;;;;;;;-0.88;100.00;99467.44;4973894;28;20068;-81
2021/12/08 08:35:45;;;;;;;0.20;0.20;;;;;;;-0.85;100.00;99456.28;4977291;28;20054;-79
2021/12/08 08:38:22;;;;;;;0.20;0.20;;;;;;;-0.86;100.00;99481.38;4977810;28;20061;-80
2021/12/08 08:41:00;;;;;;;0.30;0.30;;;;;;;-0.84;100.00;99481.13;4961343;28;20054;-81
2021/12/08 08:43:33;;;;;;;;;;;;;;;-0.78;100.00;99480.22;4972817;28;20510;-80
2021/12/08 08:46:08;;;;;;;0.20;0.20;;;;;;;-0.79;100.00;99482.06;4965434;28;20480;-81
2021/12/08 08:48:46;;;;;;;0.20;0.20;;;;;;;-0.83;100.00;99477.41;4998882;28;20058;-80
2021/12/08 08:51:18;;;;;;;0.30;0.30;;;;;;;-0.79;100.00;99486.59;4974094;28;20121;-80
2021/12/08 08:54:00;;;;;;;0.20;0.20;;;;;;;-0.73;100.00;99477.66;4974616;28;20407;-79
2021/12/08 08:56:36;;;;;;;0.20;0.20;;;;;;;-0.70;100.00;99483.31;4974805;28;20058;-80
2021/12/08 08:59:14;;;;;;;0.20;0.20;;;;;;;-0.71;100.00;99479.03;4972971;28;20061;-81
2021/12/08 09:01:51;;;;;;;0.20;0.20;;;;;;;-0.71;100.00;99475.53;4974328;28;20050;-80
2021/12/08 09:04:30;;;;;;;0.30;0.30;;;;;;;-0.72;100.00;99480.09;4978179;28;20101;-79
2021/12/08 09:07:06;;;;;;;0.30;0.30;;;;;;;-0.68;100.00;99491.09;4972677;28;20073;-80
2021/12/08 09:09:46;;;;;;;0.20;0.20;;;;;;;-0.70;100.00;99496.69;4971584;28;20053;-81
2021/12/08 09:12:22;;;;;;;0.20;0.20;;;;;;;-0.76;100.00;99494.13;4952815;28;20054;-80
2021/12/08 09:14:58;;;;;;;0.20;0.20;;;;;;;-0.70;100.00;99486.00;4960944;28;20205;-80
2021/12/08 09:17:34;;;;;;;0.20;0.20;;;;;;;-0.69;100.00;99487.63;4955859;28;20065;-80
2021/12/08 09:20:13;;;;;;;0.20;0.20;;;;;;;-0.75;100.00;99490.41;4956241;28;20054;-80
2021/12/08 09:22:53;;;;;;;0.30;0.30;;;;;;;-0.65;100.00;99495.16;4954581;28;20065;-79
2021/12/08 09:25:30;;;;;;;0.28;0.28;;;;;;;-0.66;100.00;99498.88;4962242;28;20050;-81
2021/12/08 09:28:08;;;;;;;0.20;0.20;;;;;;;-0.64;100.00;99505.63;4957969;28;20050;-81
2021/12/08 09:30:37;;;;;;;;;;;;;;;-0.72;100.00;99503.31;4986101;28;20054;-80
2021/12/08 09:33:11;;;;;;;0.20;0.20;;;;;;;-0.72;100.00;99484.59;4966546;28;20795;-79
2021/12/08 09:35:44;;;;;;;0.20;0.20;;;;;;;-0.66;100.00;99488.19;4982391;28;20065;-81
2021/12/08 09:38:15;;;;;;;0.30;0.30;;;;;;;-0.62;100.00;99500.03;4959532;28;20084;-80
2021/12/08 09:40:48;;;;;;;0.28;0.28;;;;;;;-0.58;100.00;99501.19;4964308;28;20058;-81
2021/12/08 09:43:20;;;;;;;0.20;0.20;;;;;;;-0.61;100.00;99509.69;4959500;28;20050;-81
2021/12/08 09:45:57;;;;;;;0.20;0.20;;;;;;;-0.60;100.00;99498.75;4954385;28;20058;-79
2021/12/08 09:48:31;;;;;;;0.30;0.30;;;;;;;-0.57;100.00;99500.94;4957503;28;20050;-80
2021/12/08 09:51:01;;;;;;;0.20;0.20;;;;;;;-0.55;100.00;99503.41;4967623;28;20057;-79
2021/12/08 09:53:36;;;;;;;0.20;0.20;;;;;;;-0.55;100.00;99504.22;4958794;28;20510;-81
2021/12/08 09:56:11;;;;;;;0.20;0.20;;;;;;;-0.57;100.00;99490.25;4960878;28;20881;-79
2021/12/08 09:58:45;;;;;;;0.20;0.20;;;;;;;-0.54;100.00;99486.31;4954958;28;20043;-80
2021/12/08 10:01:20;;;;;;;0.20;0.20;;;;;;;-0.52;100.00;99501.06;4956405;28;20046;-80
2021/12/08 10:03:56;;;;;;;0.30;0.30;;;;;;;-0.54;100.00;99495.16;4960033;28;20051;-80
2021/12/08 10:06:29;;;;;;;0.25;0.25;;;;;;;-0.41;100.00;99502.09;4960134;28;20056;-80
2021/12/08 10:08:59;;;;;;;0.20;0.20;;;;;;;-0.44;100.00;99499.06;4955837;28;20054;-81
2021/12/08 10:11:33;;;;;;;0.20;0.20;;;;;;;-0.42;100.00;99505.00;4963881;28;20072;-79
2021/12/08 10:14:07;;;;;;;0.20;0.20;;;;;;;-0.43;100.00;99509.56;4967467;28;20058;-80
2021/12/08 10:16:41;;;;;;;0.20;0.20;;;;;;;-0.45;100.00;99500.13;4969177;28;20748;-79
2021/12/08 10:19:09;;;;;;;0.20;0.20;;;;;;;-0.44;100.00;99501.75;4965405;28;20093;-80
2021/12/08 10:21:43;;;;;;;0.20;0.20;;;;;;;-0.48;100.00;99496.06;4953639;28;20058;-81
2021/12/08 10:24:19;;;;;;;0.20;0.20;;;;;;;-0.32;100.00;99501.72;4956985;28;20054;-80
2021/12/08 10:27:03;;;;;;;0.20;0.20;;;;;;;-0.32;100.00;99497.19;4960280;28;20061;-80
2021/12/08 10:29:37;;;;;;;0.30;0.30;;;;;;;-0.25;100.00;99489.84;4955130;28;20058;-80
2021/12/08 10:32:14;;;;;;;0.20;0.20;;;;;;;-0.20;100.00;99495.28;4964520;28;20734;-80
2021/12/08 10:34:58;;;;;;;0.30;0.30;;;;;;;-0.23;100.00;99478.91;4973926;28;20403;-79
2021/12/08 10:37:26;;;;;;;0.20;0.20;;;;;;;-0.21;100.00;99482.16;4959640;28;20085;-80
2021/12/08 10:40:08;;;;;;;0.30;0.30;;;;;;;-0.23;100.00;99477.03;4958051;28;20726;-80
2021/12/08 10:42:38;;;;;;;0.20;0.20;;;;;;;-0.15;100.00;99488.41;4960391;28;20050;-82
2021/12/08 10:45:11;;;;;;;0.30;0.30;;;;;;;-0.19;100.00;99504.94;4960383;28;20427;-81
2021/12/08 10:47:51;;;;;;;0.20;0.20;;;;;;;-0.28;100.00;99506.34;4965798;28;20502;-80
2021/12/08 10:56:13;;;;;;;0.30;0.30;;;;;;;-0.16;100.00;99518.91;4959072;28;20426;-80
2021/12/08 10:58:50;;;;;;;0.20;0.20;;;;;;;-0.13;100.00;99521.88;4932542;28;20055;-82
2021/12/08 11:01:24;;;;;;;;;;;;;;;-0.20;100.00;99483.78;4954696;28;20065;-80
2021/12/08 11:04:01;;;;;;;0.20;0.20;;;;;;;-0.25;100.00;99473.81;4972100;28;19929;-80
2021/12/08 11:06:37;;;;;;;0.20;0.20;;;;;;;-0.21;100.00;99458.09;4962707;28;20790;-80
2021/12/08 11:09:14;;;;;;;0.20;0.20;;;;;;;-0.20;100.00;99459.72;4957802;28;20058;-79
2021/12/08 11:11:48;;;;;;;0.20;0.20;;;;;;;-0.22;100.00;99477.84;4958361;28;20493;-80
2021/12/08 11:14:18;;;;;;;0.28;0.28;;;;;;;-0.11;100.00;99479.69;4962367;28;20065;-79
2021/12/08 11:16:46;;;;;;;0.30;0.30;;;;;;;-0.11;100.00;99482.38;4971794;28;20507;-80
2021/12/08 11:19:19;;;;;;;0.25;0.25;;;;;;;-0.16;100.00;99476.91;4966855;28;20054;-81
2021/12/08 11:21:56;;;;;;;0.30;0.30;;;;;;;-0.13;100.00;99465.72;4958432;28;20057;-79
2021/12/08 11:24:45;;;;;;;0.30;0.30;;;;;;;-0.13;100.00;99475.63;4964586;28;20046;-78
2021/12/08 11:27:30;;;;;;;0.20;0.20;;;;;;;-0.21;100.00;99464.25;4968003;28;20491;-79
2021/12/08 11:30:16;;;;;;;0.20;0.20;;;;;;;-0.11;100.00;99473.50;4964579;28;20085;-79
2021/12/08 11:32:49;;;;;;;0.20;0.20;;;;;;;-0.06;100.00;99474.41;4964127;28;20049;-81
2021/12/08 11:35:23;;;;;;;0.30;0.30;;;;;;;-0.05;100.00;99481.38;4965832;28;20065;-81
2021/12/08 11:38:00;;;;;;;0.30;0.30;;;;;;;-0.15;100.00;99483.06;4957944;28;20517;-81
2021/12/08 11:40:34;;;;;;;0.20;0.20;;;;;;;-0.03;100.00;99481.97;4966003;28;20065;-79
2021/12/08 11:43:14;;;;;;;0.30;0.30;;;;;;;-0.01;100.00;99479.88;4969082;28;20061;-80
2021/12/08 11:45:49;;;;;;;0.28;0.28;;;;;;;0.03;100.00;99476.69;4961068;28;20050;-80
2021/12/08 11:48:23;;;;;;;0.20;0.20;;;;;;;-0.09;100.00;99464.19;4962999;28;20070;-80
2021/12/08 11:51:09;;;;;;;0.30;0.30;;;;;;;-0.01;100.00;99471.03;4956957;28;20057;-81
2021/12/08 11:53:42;;;;;;;0.28;0.28;;;;;;;0.11;100.00;99476.31;4955764;28;20058;-80
2021/12/08 11:56:34;;;;;;;0.28;0.28;;;;;;;0.03;100.00;99480.22;4961750;28;20045;-79
2021/12/08 11:59:06;;;;;;;0.20;0.20;;;;;;;0.03;100.00;99482.06;4940687;28;20377;-78
2021/12/08 12:01:41;;;;;;;0.25;0.25;;;;;;;0.07;100.00;99491.22;4963020;28;20054;-80
2021/12/08 12:04:15;;;;;;;0.30;0.30;;;;;;;0.13;100.00;99501.78;4961533;28;20050;-79
2021/12/08 12:06:48;;;;;;;0.20;0.20;;;;;;;0.01;100.00;99489.53;4961982;28;20407;-78
2021/12/08 12:09:16;;;;;;;0.20;0.20;;;;;;;0.05;100.00;99498.69;4968041;28;20058;-80
2021/12/08 12:11:52;;;;;;;0.20;0.20;;;;;;;0.04;100.00;99489.84;4961984;28;20403;-80
2021/12/08 12:14:28;;;;;;;0.20;0.20;;;;;;;0.10;100.00;99521.00;4968569;28;20061;-80
2021/12/08 12:17:03;;;;;;;0.20;0.20;;;;;;;0.15;100.00;99513.06;4963913;28;20046;-80
2021/12/08 12:19:38;;;;;;;0.20;0.20;;;;;;;-0.03;100.00;99498.03;4956906;28;20050;-79
2021/12/08 12:22:24;;;;;;;0.20;0.20;;;;;;;-0.04;100.00;99509.78;4958618;28;20507;-78
2021/12/08 12:25:13;;;;;;;0.20;0.20;;;;;;;0.16;100.00;99517.34;4961455;28;20330;-80
2021/12/08 12:27:55;;;;;;;0.20;0.20;;;;;;;0.10;100.00;99506.81;4956198;28;20880;-81
2021/12/08 12:30:38;;;;;;;0.22;0.22;;;;;;;0.06;100.00;99511.81;4954171;28;20058;-81
2021/12/08 12:33:18;;;;;;;0.30;0.30;;;;;;;0.15;100.00;99515.75;4955553;28;20050;-80
2021/12/08 12:35:54;;;;;;;0.20;0.20;;;;;;;0.08;100.00;99512.38;4957539;28;20423;-80